sensor_id;sensor_type;location;lat;lon;timestamp;P1;durP1;ratioP1;P2;durP2;ratioP2
25437;SDS011;13364;49.084;9.978;2022-11-15T00:02:19;6.63;;;1.60;;
25437;SDS011;13364;49.084;9.978;2022-11-15T00:05:05;1.83;;;1.63;;
25437;SDS011;13364;49.084;9.978;2022-11-15T00:07:51;3.58;;;1.60;;
25437;SDS011;13364;49.084;9.978;2022-11-15T00:10:39;4.22;;;1.60;;
25437;SDS011;13364;49.084;9.978;2022-11-15T00:13:26;2.30;;;1.50;;
25437;SDS011;13364;49.084;9.978;2022-11-15T00:16:12;2.75;;;1.60;;
25437;SDS011;13364;49.084;9.978;2022-11-15T00:18:58;3.90;;;1.50;;
25437;SDS011;13364;49.084;9.978;2022-11-15T00:21:43;3.28;;;1.67;;
25437;SDS011;13364;49.084;9.978;2022-11-15T00:24:29;2.08;;;1.48;;
25437;SDS011;13364;49.084;9.978;2022-11-15T00:27:14;4.25;;;1.65;;
25437;SDS011;13364;49.084;9.978;2022-11-15T00:29:59;2.70;;;1.67;;
25437;SDS011;13364;49.084;9.978;2022-11-15T00:32:46;5.20;;;2.15;;
25437;SDS011;13364;49.084;9.978;2022-11-15T00:35:32;1.60;;;1.42;;
25437;SDS011;13364;49.084;9.978;2022-11-15T00:38:18;1.85;;;1.42;;
25437;SDS011;13364;49.084;9.978;2022-11-15T00:41:04;4.03;;;1.92;;
25437;SDS011;13364;49.084;9.978;2022-11-15T00:43:54;2.30;;;1.60;;
25437;SDS011;13364;49.084;9.978;2022-11-15T00:46:39;4.45;;;1.60;;
25437;SDS011;13364;49.084;9.978;2022-11-15T00:49:25;2.78;;;1.60;;
25437;SDS011;13364;49.084;9.978;2022-11-15T00:52:10;2.67;;;1.90;;
25437;SDS011;13364;49.084;9.978;2022-11-15T00:54:55;2.20;;;1.58;;
25437;SDS011;13364;49.084;9.978;2022-11-15T00:57:41;2.65;;;1.58;;
25437;SDS011;13364;49.084;9.978;2022-11-15T01:00:26;2.33;;;1.20;;
25437;SDS011;13364;49.084;9.978;2022-11-15T01:03:12;4.43;;;1.60;;
25437;SDS011;13364;49.084;9.978;2022-11-15T01:06:01;2.80;;;2.03;;
25437;SDS011;13364;49.084;9.978;2022-11-15T01:08:47;3.13;;;1.70;;
25437;SDS011;13364;49.084;9.978;2022-11-15T01:11:33;2.25;;;1.58;;
25437;SDS011;13364;49.084;9.978;2022-11-15T01:14:18;3.03;;;1.60;;
25437;SDS011;13364;49.084;9.978;2022-11-15T01:17:09;3.67;;;1.48;;
25437;SDS011;13364;49.084;9.978;2022-11-15T01:19:54;5.68;;;1.80;;
25437;SDS011;13364;49.084;9.978;2022-11-15T01:22:40;4.05;;;1.80;;
25437;SDS011;13364;49.084;9.978;2022-11-15T01:25:26;3.05;;;1.45;;
25437;SDS011;13364;49.084;9.978;2022-11-15T01:28:11;2.22;;;1.60;;
25437;SDS011;13364;49.084;9.978;2022-11-15T01:30:57;3.03;;;1.75;;
25437;SDS011;13364;49.084;9.978;2022-11-15T01:33:44;5.75;;;1.80;;
25437;SDS011;13364;49.084;9.978;2022-11-15T01:36:31;2.60;;;1.92;;
25437;SDS011;13364;49.084;9.978;2022-11-15T01:39:16;1.90;;;1.58;;
25437;SDS011;13364;49.084;9.978;2022-11-15T01:42:02;3.85;;;1.77;;
25437;SDS011;13364;49.084;9.978;2022-11-15T01:44:52;2.60;;;1.67;;
25437;SDS011;13364;49.084;9.978;2022-11-15T01:47:40;4.10;;;1.95;;
25437;SDS011;13364;49.084;9.978;2022-11-15T01:50:31;2.97;;;1.63;;
25437;SDS011;13364;49.084;9.978;2022-11-15T01:53:17;2.67;;;1.77;;
25437;SDS011;13364;49.084;9.978;2022-11-15T01:56:06;2.33;;;1.75;;
25437;SDS011;13364;49.084;9.978;2022-11-15T01:58:55;3.65;;;2.25;;
25437;SDS011;13364;49.084;9.978;2022-11-15T02:01:43;2.20;;;1.75;;
25437;SDS011;13364;49.084;9.978;2022-11-15T02:04:30;5.53;;;1.90;;
25437;SDS011;13364;49.084;9.978;2022-11-15T02:07:18;2.85;;;1.80;;
25437;SDS011;13364;49.084;9.978;2022-11-15T02:10:10;2.50;;;1.83;;
25437;SDS011;13364;49.084;9.978;2022-11-15T02:12:58;10.05;;;3.55;;
25437;SDS011;13364;49.084;9.978;2022-11-15T02:15:52;11.18;;;3.83;;
25437;SDS011;13364;49.084;9.978;2022-11-15T02:18:50;8.65;;;3.80;;
25437;SDS011;13364;49.084;9.978;2022-11-15T02:21:42;5.90;;;3.20;;
25437;SDS011;13364;49.084;9.978;2022-11-15T02:31:16;3.10;;;2.60;;
25437;SDS011;13364;49.084;9.978;2022-11-15T02:46:48;3.92;;;2.58;;
25437;SDS011;13364;49.084;9.978;2022-11-15T02:50:04;3.72;;;2.60;;
25437;SDS011;13364;49.084;9.978;2022-11-15T02:52:53;7.20;;;2.92;;
25437;SDS011;13364;49.084;9.978;2022-11-15T02:55:49;7.15;;;3.45;;
25437;SDS011;13364;49.084;9.978;2022-11-15T02:58:52;6.68;;;2.95;;
25437;SDS011;13364;49.084;9.978;2022-11-15T03:04:57;4.97;;;2.15;;
25437;SDS011;13364;49.084;9.978;2022-11-15T03:07:57;5.05;;;2.28;;
25437;SDS011;13364;49.084;9.978;2022-11-15T03:11:06;5.30;;;2.70;;
25437;SDS011;13364;49.084;9.978;2022-11-15T03:17:15;4.75;;;2.30;;
25437;SDS011;13364;49.084;9.978;2022-11-15T03:20:07;3.08;;;2.00;;
25437;SDS011;13364;49.084;9.978;2022-11-15T03:22:55;4.32;;;2.53;;
25437;SDS011;13364;49.084;9.978;2022-11-15T03:25:46;3.30;;;2.35;;
25437;SDS011;13364;49.084;9.978;2022-11-15T03:28:38;4.72;;;2.63;;
25437;SDS011;13364;49.084;9.978;2022-11-15T03:31:31;4.63;;;3.05;;
25437;SDS011;13364;49.084;9.978;2022-11-15T03:34:56;4.03;;;2.72;;
25437;SDS011;13364;49.084;9.978;2022-11-15T03:40:38;5.95;;;2.72;;
25437;SDS011;13364;49.084;9.978;2022-11-15T03:46:36;3.70;;;2.90;;
25437;SDS011;13364;49.084;9.978;2022-11-15T03:49:41;4.35;;;2.90;;
25437;SDS011;13364;49.084;9.978;2022-11-15T03:52:32;7.72;;;3.00;;
25437;SDS011;13364;49.084;9.978;2022-11-15T03:55:19;5.25;;;3.20;;
25437;SDS011;13364;49.084;9.978;2022-11-15T03:58:05;3.83;;;2.92;;
25437;SDS011;13364;49.084;9.978;2022-11-15T04:00:51;6.50;;;3.30;;
25437;SDS011;13364;49.084;9.978;2022-11-15T04:03:36;8.18;;;3.08;;
25437;SDS011;13364;49.084;9.978;2022-11-15T04:06:22;3.85;;;2.83;;
25437;SDS011;13364;49.084;9.978;2022-11-15T04:09:07;5.30;;;3.17;;
25437;SDS011;13364;49.084;9.978;2022-11-15T04:11:53;6.18;;;3.28;;
25437;SDS011;13364;49.084;9.978;2022-11-15T04:14:38;4.30;;;3.10;;
25437;SDS011;13364;49.084;9.978;2022-11-15T04:17:44;6.63;;;3.47;;
25437;SDS011;13364;49.084;9.978;2022-11-15T04:20:41;5.55;;;3.42;;
25437;SDS011;13364;49.084;9.978;2022-11-15T04:23:51;5.35;;;3.30;;
25437;SDS011;13364;49.084;9.978;2022-11-15T04:26:49;4.88;;;3.45;;
25437;SDS011;13364;49.084;9.978;2022-11-15T04:29:34;6.13;;;3.17;;
25437;SDS011;13364;49.084;9.978;2022-11-15T04:32:20;7.35;;;3.53;;
25437;SDS011;13364;49.084;9.978;2022-11-15T04:35:05;5.95;;;3.60;;
25437;SDS011;13364;49.084;9.978;2022-11-15T04:37:51;8.73;;;3.90;;
25437;SDS011;13364;49.084;9.978;2022-11-15T04:40:37;6.90;;;3.97;;
25437;SDS011;13364;49.084;9.978;2022-11-15T04:43:23;7.03;;;3.67;;
25437;SDS011;13364;49.084;9.978;2022-11-15T04:46:08;7.63;;;4.20;;
25437;SDS011;13364;49.084;9.978;2022-11-15T04:48:54;5.55;;;4.07;;
25437;SDS011;13364;49.084;9.978;2022-11-15T04:51:42;8.05;;;4.65;;
25437;SDS011;13364;49.084;9.978;2022-11-15T04:54:29;6.43;;;4.40;;
25437;SDS011;13364;49.084;9.978;2022-11-15T04:57:14;7.43;;;4.70;;
25437;SDS011;13364;49.084;9.978;2022-11-15T05:00:00;7.47;;;5.05;;
25437;SDS011;13364;49.084;9.978;2022-11-15T05:02:46;11.90;;;5.15;;
25437;SDS011;13364;49.084;9.978;2022-11-15T05:05:50;11.38;;;5.15;;
25437;SDS011;13364;49.084;9.978;2022-11-15T05:08:35;8.65;;;5.75;;
25437;SDS011;13364;49.084;9.978;2022-11-15T05:11:21;8.30;;;5.35;;
25437;SDS011;13364;49.084;9.978;2022-11-15T05:14:07;10.02;;;5.60;;
25437;SDS011;13364;49.084;9.978;2022-11-15T05:16:52;7.90;;;4.90;;
25437;SDS011;13364;49.084;9.978;2022-11-15T05:19:38;7.93;;;5.30;;
25437;SDS011;13364;49.084;9.978;2022-11-15T05:22:24;7.85;;;5.50;;
25437;SDS011;13364;49.084;9.978;2022-11-15T05:25:10;9.02;;;5.93;;
25437;SDS011;13364;49.084;9.978;2022-11-15T05:27:55;10.10;;;5.50;;
25437;SDS011;13364;49.084;9.978;2022-11-15T05:30:41;6.72;;;5.32;;
25437;SDS011;13364;49.084;9.978;2022-11-15T05:33:26;10.57;;;5.38;;
25437;SDS011;13364;49.084;9.978;2022-11-15T05:39:19;7.63;;;5.22;;
25437;SDS011;13364;49.084;9.978;2022-11-15T05:42:09;9.40;;;5.85;;
25437;SDS011;13364;49.084;9.978;2022-11-15T05:44:59;8.65;;;5.32;;
25437;SDS011;13364;49.084;9.978;2022-11-15T05:47:46;6.82;;;5.38;;
25437;SDS011;13364;49.084;9.978;2022-11-15T05:55:04;10.93;;;5.50;;
25437;SDS011;13364;49.084;9.978;2022-11-15T05:57:50;10.63;;;6.28;;
25437;SDS011;13364;49.084;9.978;2022-11-15T06:00:36;12.98;;;6.93;;
25437;SDS011;13364;49.084;9.978;2022-11-15T06:03:21;12.38;;;7.15;;
25437;SDS011;13364;49.084;9.978;2022-11-15T06:06:07;10.35;;;6.03;;
25437;SDS011;13364;49.084;9.978;2022-11-15T06:08:59;9.35;;;5.32;;
25437;SDS011;13364;49.084;9.978;2022-11-15T06:11:45;11.15;;;5.35;;
25437;SDS011;13364;49.084;9.978;2022-11-15T06:14:31;9.02;;;6.32;;
25437;SDS011;13364;49.084;9.978;2022-11-15T06:17:16;9.93;;;6.03;;
25437;SDS011;13364;49.084;9.978;2022-11-15T06:20:02;10.52;;;5.80;;
25437;SDS011;13364;49.084;9.978;2022-11-15T06:22:48;10.25;;;6.40;;
25437;SDS011;13364;49.084;9.978;2022-11-15T06:25:33;9.52;;;6.53;;
25437;SDS011;13364;49.084;9.978;2022-11-15T06:28:18;9.52;;;5.80;;
25437;SDS011;13364;49.084;9.978;2022-11-15T06:31:04;8.82;;;6.18;;
25437;SDS011;13364;49.084;9.978;2022-11-15T06:33:51;7.60;;;5.70;;
25437;SDS011;13364;49.084;9.978;2022-11-15T06:36:36;8.07;;;5.20;;
25437;SDS011;13364;49.084;9.978;2022-11-15T06:39:22;7.97;;;5.30;;
25437;SDS011;13364;49.084;9.978;2022-11-15T06:46:27;7.60;;;3.97;;
25437;SDS011;13364;49.084;9.978;2022-11-15T06:49:13;12.02;;;5.95;;
25437;SDS011;13364;49.084;9.978;2022-11-15T06:51:58;9.82;;;5.30;;
25437;SDS011;13364;49.084;9.978;2022-11-15T06:54:44;8.80;;;5.38;;
25437;SDS011;13364;49.084;9.978;2022-11-15T06:57:29;7.88;;;5.65;;
25437;SDS011;13364;49.084;9.978;2022-11-15T07:00:15;8.15;;;5.45;;
25437;SDS011;13364;49.084;9.978;2022-11-15T07:03:02;6.68;;;4.90;;
25437;SDS011;13364;49.084;9.978;2022-11-15T07:05:54;8.70;;;5.72;;
25437;SDS011;13364;49.084;9.978;2022-11-15T07:08:49;11.55;;;5.38;;
25437;SDS011;13364;49.084;9.978;2022-11-15T07:11:34;6.53;;;4.93;;
25437;SDS011;13364;49.084;9.978;2022-11-15T07:14:20;7.93;;;5.22;;
25437;SDS011;13364;49.084;9.978;2022-11-15T07:17:05;7.78;;;4.95;;
25437;SDS011;13364;49.084;9.978;2022-11-15T07:19:51;9.30;;;5.38;;
25437;SDS011;13364;49.084;9.978;2022-11-15T07:22:36;8.27;;;5.03;;
25437;SDS011;13364;49.084;9.978;2022-11-15T07:25:22;13.27;;;5.55;;
25437;SDS011;13364;49.084;9.978;2022-11-15T07:28:07;9.60;;;5.00;;
25437;SDS011;13364;49.084;9.978;2022-11-15T07:30:53;7.22;;;4.40;;
25437;SDS011;13364;49.084;9.978;2022-11-15T07:33:39;5.78;;;4.28;;
25437;SDS011;13364;49.084;9.978;2022-11-15T07:36:24;7.18;;;5.10;;
25437;SDS011;13364;49.084;9.978;2022-11-15T07:39:10;7.28;;;4.78;;
25437;SDS011;13364;49.084;9.978;2022-11-15T07:41:57;6.95;;;4.82;;
25437;SDS011;13364;49.084;9.978;2022-11-15T07:45:00;5.93;;;4.63;;
25437;SDS011;13364;49.084;9.978;2022-11-15T07:47:47;4.55;;;4.07;;
25437;SDS011;13364;49.084;9.978;2022-11-15T07:50:33;8.55;;;4.28;;
25437;SDS011;13364;49.084;9.978;2022-11-15T07:53:19;8.05;;;4.35;;
25437;SDS011;13364;49.084;9.978;2022-11-15T07:56:07;6.65;;;3.83;;
25437;SDS011;13364;49.084;9.978;2022-11-15T07:58:53;5.80;;;3.13;;
25437;SDS011;13364;49.084;9.978;2022-11-15T08:01:39;10.35;;;4.15;;
25437;SDS011;13364;49.084;9.978;2022-11-15T08:04:25;5.28;;;3.95;;
25437;SDS011;13364;49.084;9.978;2022-11-15T08:07:10;8.75;;;4.10;;
25437;SDS011;13364;49.084;9.978;2022-11-15T08:09:56;6.13;;;3.65;;
25437;SDS011;13364;49.084;9.978;2022-11-15T08:12:42;5.68;;;3.90;;
25437;SDS011;13364;49.084;9.978;2022-11-15T08:15:28;5.35;;;3.90;;
25437;SDS011;13364;49.084;9.978;2022-11-15T08:18:17;10.63;;;4.22;;
25437;SDS011;13364;49.084;9.978;2022-11-15T08:21:03;5.63;;;4.22;;
25437;SDS011;13364;49.084;9.978;2022-11-15T08:23:49;6.90;;;4.07;;
25437;SDS011;13364;49.084;9.978;2022-11-15T08:26:34;8.13;;;4.03;;
25437;SDS011;13364;49.084;9.978;2022-11-15T08:29:20;6.82;;;3.90;;
25437;SDS011;13364;49.084;9.978;2022-11-15T08:32:05;11.52;;;3.95;;
25437;SDS011;13364;49.084;9.978;2022-11-15T08:34:51;6.80;;;3.70;;
25437;SDS011;13364;49.084;9.978;2022-11-15T08:37:37;6.00;;;3.53;;
25437;SDS011;13364;49.084;9.978;2022-11-15T08:40:23;5.38;;;3.95;;
25437;SDS011;13364;49.084;9.978;2022-11-15T08:43:09;5.75;;;3.83;;
25437;SDS011;13364;49.084;9.978;2022-11-15T08:45:58;6.55;;;3.90;;
25437;SDS011;13364;49.084;9.978;2022-11-15T08:48:44;8.43;;;3.67;;
25437;SDS011;13364;49.084;9.978;2022-11-15T08:51:29;6.97;;;5.10;;
25437;SDS011;13364;49.084;9.978;2022-11-15T08:54:15;6.90;;;4.10;;
25437;SDS011;13364;49.084;9.978;2022-11-15T08:57:00;5.43;;;3.95;;
25437;SDS011;13364;49.084;9.978;2022-11-15T08:59:46;6.35;;;3.63;;
25437;SDS011;13364;49.084;9.978;2022-11-15T09:02:31;5.32;;;4.30;;
25437;SDS011;13364;49.084;9.978;2022-11-15T09:05:17;6.15;;;4.32;;
25437;SDS011;13364;49.084;9.978;2022-11-15T09:08:03;8.55;;;4.35;;
25437;SDS011;13364;49.084;9.978;2022-11-15T09:11:09;5.45;;;4.53;;
25437;SDS011;13364;49.084;9.978;2022-11-15T09:13:55;5.20;;;4.10;;
25437;SDS011;13364;49.084;9.978;2022-11-15T09:16:41;5.20;;;4.18;;
25437;SDS011;13364;49.084;9.978;2022-11-15T09:19:27;7.93;;;4.07;;
25437;SDS011;13364;49.084;9.978;2022-11-15T09:22:12;7.03;;;3.72;;
25437;SDS011;13364;49.084;9.978;2022-11-15T09:24:58;7.10;;;4.45;;
25437;SDS011;13364;49.084;9.978;2022-11-15T09:27:43;4.78;;;3.80;;
25437;SDS011;13364;49.084;9.978;2022-11-15T09:30:29;6.80;;;4.38;;
25437;SDS011;13364;49.084;9.978;2022-11-15T09:33:14;5.93;;;4.45;;
25437;SDS011;13364;49.084;9.978;2022-11-15T09:36:01;6.15;;;4.05;;
25437;SDS011;13364;49.084;9.978;2022-11-15T09:38:51;4.55;;;3.50;;
25437;SDS011;13364;49.084;9.978;2022-11-15T09:41:58;6.25;;;4.40;;
25437;SDS011;13364;49.084;9.978;2022-11-15T09:45:26;5.32;;;3.95;;
25437;SDS011;13364;49.084;9.978;2022-11-15T09:48:31;6.15;;;3.97;;
25437;SDS011;13364;49.084;9.978;2022-11-15T09:51:30;5.45;;;3.78;;
25437;SDS011;13364;49.084;9.978;2022-11-15T09:54:04;6.53;;;3.90;;
25437;SDS011;13364;49.084;9.978;2022-11-15T09:56:55;5.22;;;3.45;;
25437;SDS011;13364;49.084;9.978;2022-11-15T10:05:48;8.45;;;4.15;;
25437;SDS011;13364;49.084;9.978;2022-11-15T10:10:58;4.25;;;3.55;;
25437;SDS011;13364;49.084;9.978;2022-11-15T10:14:04;5.07;;;3.60;;
25437;SDS011;13364;49.084;9.978;2022-11-15T10:25:18;4.53;;;3.60;;
25437;SDS011;13364;49.084;9.978;2022-11-15T10:28:00;7.47;;;3.80;;
25437;SDS011;13364;49.084;9.978;2022-11-15T10:30:35;5.60;;;3.80;;
25437;SDS011;13364;49.084;9.978;2022-11-15T10:33:17;4.50;;;3.70;;
25437;SDS011;13364;49.084;9.978;2022-11-15T10:35:55;4.70;;;3.88;;
25437;SDS011;13364;49.084;9.978;2022-11-15T10:41:18;5.65;;;4.03;;
25437;SDS011;13364;49.084;9.978;2022-11-15T10:46:48;5.60;;;3.78;;
25437;SDS011;13364;49.084;9.978;2022-11-15T10:49:25;7.93;;;4.43;;
25437;SDS011;13364;49.084;9.978;2022-11-15T10:56:57;4.50;;;3.80;;
25437;SDS011;13364;49.084;9.978;2022-11-15T10:59:27;6.55;;;3.80;;
25437;SDS011;13364;49.084;9.978;2022-11-15T11:04:53;6.25;;;3.88;;
25437;SDS011;13364;49.084;9.978;2022-11-15T11:07:21;6.80;;;3.72;;
25437;SDS011;13364;49.084;9.978;2022-11-15T11:09:57;6.05;;;4.25;;
25437;SDS011;13364;49.084;9.978;2022-11-15T11:12:50;4.88;;;3.67;;
25437;SDS011;13364;49.084;9.978;2022-11-15T11:15:17;4.05;;;3.65;;
25437;SDS011;13364;49.084;9.978;2022-11-15T11:23:29;8.63;;;3.33;;
25437;SDS011;13364;49.084;9.978;2022-11-15T11:31:59;5.23;;;3.00;;
25437;SDS011;13364;49.084;9.978;2022-11-15T11:40:28;11.30;;;3.20;;
25437;SDS011;13364;49.084;9.978;2022-11-15T11:48:53;7.35;;;4.15;;
25437;SDS011;13364;49.084;9.978;2022-11-15T11:51:34;6.93;;;3.58;;
25437;SDS011;13364;49.084;9.978;2022-11-15T12:00:20;4.13;;;2.60;;
25437;SDS011;13364;49.084;9.978;2022-11-15T12:03:02;3.83;;;3.40;;
25437;SDS011;13364;49.084;9.978;2022-11-15T12:10:40;4.05;;;2.70;;
25437;SDS011;13364;49.084;9.978;2022-11-15T12:13:19;3.13;;;2.63;;
25437;SDS011;13364;49.084;9.978;2022-11-15T12:18:23;5.90;;;2.70;;
25437;SDS011;13364;49.084;9.978;2022-11-15T12:20:57;3.33;;;2.25;;
25437;SDS011;13364;49.084;9.978;2022-11-15T12:23:42;3.33;;;2.28;;
25437;SDS011;13364;49.084;9.978;2022-11-15T12:26:26;3.47;;;2.22;;
25437;SDS011;13364;49.084;9.978;2022-11-15T12:29:05;3.28;;;1.98;;
25437;SDS011;13364;49.084;9.978;2022-11-15T12:32:12;5.38;;;2.95;;
25437;SDS011;13364;49.084;9.978;2022-11-15T12:34:48;3.70;;;1.92;;
25437;SDS011;13364;49.084;9.978;2022-11-15T12:37:32;5.47;;;2.42;;
25437;SDS011;13364;49.084;9.978;2022-11-15T12:42:41;5.53;;;2.58;;
25437;SDS011;13364;49.084;9.978;2022-11-15T12:45:24;2.88;;;2.00;;
25437;SDS011;13364;49.084;9.978;2022-11-15T12:47:51;3.30;;;2.10;;
25437;SDS011;13364;49.084;9.978;2022-11-15T12:51:04;4.97;;;2.60;;
25437;SDS011;13364;49.084;9.978;2022-11-15T12:59:05;5.82;;;3.78;;
25437;SDS011;13364;49.084;9.978;2022-11-15T13:04:08;3.95;;;3.00;;
25437;SDS011;13364;49.084;9.978;2022-11-15T13:07:02;5.00;;;2.92;;
25437;SDS011;13364;49.084;9.978;2022-11-15T13:12:01;6.43;;;2.83;;
25437;SDS011;13364;49.084;9.978;2022-11-15T13:17:40;11.50;;;3.67;;
25437;SDS011;13364;49.084;9.978;2022-11-15T13:25:22;6.57;;;2.60;;
25437;SDS011;13364;49.084;9.978;2022-11-15T13:30:51;4.95;;;2.60;;
25437;SDS011;13364;49.084;9.978;2022-11-15T13:33:21;3.35;;;3.00;;
25437;SDS011;13364;49.084;9.978;2022-11-15T13:36:13;4.43;;;2.38;;
25437;SDS011;13364;49.084;9.978;2022-11-15T13:38:56;2.83;;;2.20;;
25437;SDS011;13364;49.084;9.978;2022-11-15T13:41:47;5.60;;;2.65;;
25437;SDS011;13364;49.084;9.978;2022-11-15T13:44:29;4.43;;;2.50;;
25437;SDS011;13364;49.084;9.978;2022-11-15T13:47:18;4.00;;;2.67;;
25437;SDS011;13364;49.084;9.978;2022-11-15T13:49:45;2.85;;;2.08;;
25437;SDS011;13364;49.084;9.978;2022-11-15T13:52:13;4.82;;;2.65;;
25437;SDS011;13364;49.084;9.978;2022-11-15T13:54:43;3.15;;;2.78;;
25437;SDS011;13364;49.084;9.978;2022-11-15T13:57:21;3.45;;;2.53;;
25437;SDS011;13364;49.084;9.978;2022-11-15T13:59:52;6.38;;;2.60;;
25437;SDS011;13364;49.084;9.978;2022-11-15T14:02:29;5.50;;;2.50;;
25437;SDS011;13364;49.084;9.978;2022-11-15T14:07:38;6.38;;;2.70;;
25437;SDS011;13364;49.084;9.978;2022-11-15T14:12:56;5.90;;;2.72;;
25437;SDS011;13364;49.084;9.978;2022-11-15T14:17:53;6.38;;;2.13;;
25437;SDS011;13364;49.084;9.978;2022-11-15T14:20:32;3.40;;;2.28;;
25437;SDS011;13364;49.084;9.978;2022-11-15T14:23:02;6.03;;;2.47;;
25437;SDS011;13364;49.084;9.978;2022-11-15T14:25:53;2.75;;;2.05;;
25437;SDS011;13364;49.084;9.978;2022-11-15T14:30:51;2.20;;;2.00;;
25437;SDS011;13364;49.084;9.978;2022-11-15T14:33:30;84.15;;;24.92;;
25437;SDS011;13364;49.084;9.978;2022-11-15T14:36:10;3.97;;;2.67;;
25437;SDS011;13364;49.084;9.978;2022-11-15T14:38:39;4.72;;;2.63;;
25437;SDS011;13364;49.084;9.978;2022-11-15T14:41:10;3.00;;;2.65;;
25437;SDS011;13364;49.084;9.978;2022-11-15T14:43:50;2.95;;;2.53;;
25437;SDS011;13364;49.084;9.978;2022-11-15T14:46:18;5.05;;;2.58;;
25437;SDS011;13364;49.084;9.978;2022-11-15T14:48:45;4.25;;;2.65;;
25437;SDS011;13364;49.084;9.978;2022-11-15T14:51:13;3.78;;;2.70;;
25437;SDS011;13364;49.084;9.978;2022-11-15T14:53:43;5.70;;;2.65;;
25437;SDS011;13364;49.084;9.978;2022-11-15T14:56:11;6.63;;;2.95;;
25437;SDS011;13364;49.084;9.978;2022-11-15T14:58:39;8.73;;;4.43;;
25437;SDS011;13364;49.084;9.978;2022-11-15T15:04:03;12.60;;;7.28;;
25437;SDS011;13364;49.084;9.978;2022-11-15T15:06:30;10.77;;;6.45;;
25437;SDS011;13364;49.084;9.978;2022-11-15T15:08:57;10.18;;;5.43;;
25437;SDS011;13364;49.084;9.978;2022-11-15T15:11:25;6.55;;;4.30;;
25437;SDS011;13364;49.084;9.978;2022-11-15T15:13:54;6.03;;;4.43;;
25437;SDS011;13364;49.084;9.978;2022-11-15T15:16:23;7.28;;;4.60;;
25437;SDS011;13364;49.084;9.978;2022-11-15T15:18:51;6.05;;;4.40;;
25437;SDS011;13364;49.084;9.978;2022-11-15T15:21:27;5.97;;;4.05;;
25437;SDS011;13364;49.084;9.978;2022-11-15T15:24:01;6.60;;;4.78;;
25437;SDS011;13364;49.084;9.978;2022-11-15T15:26:29;5.78;;;4.40;;
25437;SDS011;13364;49.084;9.978;2022-11-15T15:29:00;6.28;;;4.15;;
25437;SDS011;13364;49.084;9.978;2022-11-15T15:31:27;6.05;;;4.65;;
25437;SDS011;13364;49.084;9.978;2022-11-15T15:33:54;7.28;;;4.20;;
25437;SDS011;13364;49.084;9.978;2022-11-15T15:36:21;9.73;;;5.43;;
25437;SDS011;13364;49.084;9.978;2022-11-15T15:38:48;10.30;;;5.55;;
25437;SDS011;13364;49.084;9.978;2022-11-15T15:41:17;11.95;;;5.85;;
25437;SDS011;13364;49.084;9.978;2022-11-15T15:43:44;7.60;;;5.15;;
25437;SDS011;13364;49.084;9.978;2022-11-15T15:46:13;6.93;;;5.00;;
25437;SDS011;13364;49.084;9.978;2022-11-15T15:51:56;6.72;;;4.88;;
25437;SDS011;13364;49.084;9.978;2022-11-15T15:54:23;6.32;;;4.75;;
25437;SDS011;13364;49.084;9.978;2022-11-15T15:56:50;7.53;;;5.18;;
25437;SDS011;13364;49.084;9.978;2022-11-15T15:59:21;7.07;;;4.97;;
25437;SDS011;13364;49.084;9.978;2022-11-15T16:01:48;5.25;;;4.20;;
25437;SDS011;13364;49.084;9.978;2022-11-15T16:04:15;6.20;;;4.55;;
25437;SDS011;13364;49.084;9.978;2022-11-15T16:06:42;5.53;;;4.30;;
25437;SDS011;13364;49.084;9.978;2022-11-15T16:09:12;6.32;;;4.43;;
25437;SDS011;13364;49.084;9.978;2022-11-15T16:11:44;8.02;;;5.00;;
25437;SDS011;13364;49.084;9.978;2022-11-15T16:14:12;8.45;;;4.25;;
25437;SDS011;13364;49.084;9.978;2022-11-15T16:16:39;9.00;;;4.22;;
25437;SDS011;13364;49.084;9.978;2022-11-15T16:19:07;5.95;;;5.18;;
25437;SDS011;13364;49.084;9.978;2022-11-15T16:21:37;7.47;;;5.10;;
25437;SDS011;13364;49.084;9.978;2022-11-15T16:24:04;10.88;;;5.40;;
25437;SDS011;13364;49.084;9.978;2022-11-15T16:26:31;6.68;;;5.30;;
25437;SDS011;13364;49.084;9.978;2022-11-15T16:29:01;5.20;;;4.65;;
25437;SDS011;13364;49.084;9.978;2022-11-15T16:31:28;8.10;;;5.10;;
25437;SDS011;13364;49.084;9.978;2022-11-15T16:33:56;6.47;;;4.85;;
25437;SDS011;13364;49.084;9.978;2022-11-15T16:36:24;6.78;;;4.63;;
25437;SDS011;13364;49.084;9.978;2022-11-15T16:39:00;7.90;;;5.10;;
25437;SDS011;13364;49.084;9.978;2022-11-15T16:41:30;6.65;;;4.35;;
25437;SDS011;13364;49.084;9.978;2022-11-15T16:43:58;8.43;;;5.68;;
25437;SDS011;13364;49.084;9.978;2022-11-15T16:46:25;7.78;;;5.00;;
25437;SDS011;13364;49.084;9.978;2022-11-15T16:48:53;10.80;;;5.55;;
25437;SDS011;13364;49.084;9.978;2022-11-15T16:53:51;6.53;;;4.70;;
25437;SDS011;13364;49.084;9.978;2022-11-15T16:56:19;8.27;;;4.90;;
25437;SDS011;13364;49.084;9.978;2022-11-15T16:58:54;6.68;;;5.07;;
25437;SDS011;13364;49.084;9.978;2022-11-15T17:01:24;11.23;;;6.45;;
25437;SDS011;13364;49.084;9.978;2022-11-15T17:04:01;20.80;;;9.93;;
25437;SDS011;13364;49.084;9.978;2022-11-15T17:06:39;21.83;;;10.68;;
25437;SDS011;13364;49.084;9.978;2022-11-15T17:09:11;23.58;;;9.82;;
25437;SDS011;13364;49.084;9.978;2022-11-15T17:11:45;48.90;;;16.70;;
25437;SDS011;13364;49.084;9.978;2022-11-15T17:14:13;43.63;;;16.75;;
25437;SDS011;13364;49.084;9.978;2022-11-15T17:16:41;31.23;;;13.80;;
25437;SDS011;13364;49.084;9.978;2022-11-15T17:19:13;13.10;;;7.15;;
25437;SDS011;13364;49.084;9.978;2022-11-15T17:21:43;15.15;;;7.47;;
25437;SDS011;13364;49.084;9.978;2022-11-15T17:24:10;8.50;;;5.38;;
25437;SDS011;13364;49.084;9.978;2022-11-15T17:26:37;8.63;;;5.25;;
25437;SDS011;13364;49.084;9.978;2022-11-15T17:29:06;8.35;;;6.00;;
25437;SDS011;13364;49.084;9.978;2022-11-15T17:31:34;8.75;;;5.68;;
25437;SDS011;13364;49.084;9.978;2022-11-15T17:34:02;8.50;;;5.32;;
25437;SDS011;13364;49.084;9.978;2022-11-15T17:36:30;8.82;;;5.57;;
25437;SDS011;13364;49.084;9.978;2022-11-15T17:38:58;9.25;;;5.50;;
25437;SDS011;13364;49.084;9.978;2022-11-15T17:41:26;8.73;;;5.40;;
25437;SDS011;13364;49.084;9.978;2022-11-15T17:43:57;8.32;;;5.22;;
25437;SDS011;13364;49.084;9.978;2022-11-15T17:46:26;7.65;;;5.65;;
25437;SDS011;13364;49.084;9.978;2022-11-15T17:48:54;6.53;;;5.50;;
25437;SDS011;13364;49.084;9.978;2022-11-15T17:51:24;7.75;;;5.72;;
25437;SDS011;13364;49.084;9.978;2022-11-15T17:53:51;8.95;;;6.28;;
25437;SDS011;13364;49.084;9.978;2022-11-15T17:56:19;7.32;;;5.50;;
25437;SDS011;13364;49.084;9.978;2022-11-15T17:58:48;10.57;;;6.28;;
25437;SDS011;13364;49.084;9.978;2022-11-15T18:01:16;9.35;;;6.20;;
25437;SDS011;13364;49.084;9.978;2022-11-15T18:03:48;7.85;;;5.50;;
25437;SDS011;13364;49.084;9.978;2022-11-15T18:06:16;8.15;;;5.82;;
25437;SDS011;13364;49.084;9.978;2022-11-15T18:08:46;8.33;;;5.90;;
25437;SDS011;13364;49.084;9.978;2022-11-15T18:11:18;7.95;;;6.05;;
25437;SDS011;13364;49.084;9.978;2022-11-15T18:13:50;6.68;;;5.28;;
25437;SDS011;13364;49.084;9.978;2022-11-15T18:18:47;7.53;;;5.85;;
25437;SDS011;13364;49.084;9.978;2022-11-15T18:21:17;11.00;;;6.72;;
25437;SDS011;13364;49.084;9.978;2022-11-15T18:23:47;9.65;;;6.72;;
25437;SDS011;13364;49.084;9.978;2022-11-15T18:26:17;10.52;;;7.30;;
25437;SDS011;13364;49.084;9.978;2022-11-15T18:28:51;12.35;;;6.97;;
25437;SDS011;13364;49.084;9.978;2022-11-15T18:31:20;10.45;;;6.80;;
25437;SDS011;13364;49.084;9.978;2022-11-15T18:33:49;10.73;;;7.10;;
25437;SDS011;13364;49.084;9.978;2022-11-15T18:36:18;11.02;;;6.55;;
25437;SDS011;13364;49.084;9.978;2022-11-15T18:38:53;10.02;;;7.13;;
25437;SDS011;13364;49.084;9.978;2022-11-15T18:41:32;15.98;;;6.38;;
25437;SDS011;13364;49.084;9.978;2022-11-15T18:44:00;11.02;;;6.55;;
25437;SDS011;13364;49.084;9.978;2022-11-15T18:46:29;13.15;;;6.65;;
25437;SDS011;13364;49.084;9.978;2022-11-15T18:48:58;13.57;;;7.55;;